Time;durP1;ratioP1;P1;durP2;ratioP2;P2;SDS_P1;SDS_P2;PMS_P1;PMS_P2;Temp;Humidity;BMP_temperature;BMP_pressure;BME280_temperature;BME280_humidity;BME280_pressure;Samples;Min_cycle;Max_cycle;Signal;HPM_P1;HPM_P2
2022/08/05 00:01:40;;;;;;;;;;;;;;;21.82;30.21;97878.06;5053362;28;979;-78
2022/08/05 00:04:05;;;;;;;;;;;;;;;21.72;30.24;97874.28;5053211;28;943;-78
2022/08/05 00:06:31;;;;;;;;;;;;;;;21.54;30.98;97874.00;5053522;28;1037;-78
2022/08/05 00:08:56;;;;;;;;;;;;;;;22.07;30.03;97868.78;5053488;28;1985;-78
2022/08/05 00:11:22;;;;;;;;;;;;;;;21.77;30.47;97870.91;5053456;28;1083;-78
2022/08/05 00:13:47;;;;;;;;;;;;;;;21.58;30.44;97871.84;5052720;28;995;-77
2022/08/05 00:16:13;;;;;;;;;;;;;;;22.03;29.86;97865.28;5053245;28;949;-77
2022/08/05 00:18:45;;;;;;;;;;;;;;;21.74;30.11;97863.28;5032886;28;984;-78
2022/08/05 00:21:10;;;;;;;;;;;;;;;21.82;29.97;97864.69;5033514;28;951;-78
2022/08/05 00:23:36;;;;;;;;;;;;;;;21.81;30.29;97860.25;5032955;28;1354;-77
2022/08/05 00:26:01;;;;;;;;;;;;;;;21.91;30.12;97863.22;5033172;28;1011;-77
2022/08/05 00:28:27;;;;;;;;;;;;;;;21.57;30.54;97859.75;5033329;28;1010;-78
2022/08/05 00:30:52;;;;;;;;;;;;;;;21.55;30.82;97853.75;5033385;28;1967;-77
2022/08/05 00:33:18;;;;;;;;;;;;;;;21.63;30.69;97856.34;5033689;28;925;-77
2022/08/05 00:35:43;;;;;;;;;;;;;;;21.77;30.37;97848.25;5033459;28;1004;-78
2022/08/05 00:38:09;;;;;;;;;;;;;;;21.48;31.07;97847.47;5033499;28;1031;-78
2022/08/05 00:40:40;;;;;;;;;;;;;;;21.75;30.65;97850.72;5033035;28;990;-78
2022/08/05 00:43:06;;;;;;;;;;;;;;;21.81;30.32;97853.78;5035824;28;991;-78
2022/08/05 00:45:31;;;;;;;;;;;;;;;21.71;30.52;97849.22;5033085;28;1028;-78
2022/08/05 00:47:57;;;;;;;;;;;;;;;21.62;30.86;97852.72;5033118;28;1258;-78
2022/08/05 00:50:22;;;;;;;;;;;;;;;21.69;30.46;97849.69;5032816;28;1976;-78
2022/08/05 00:52:48;;;;;;;;;;;;;;;21.72;30.61;97843.13;5033032;28;995;-78
2022/08/05 00:55:13;;;;;;;;;;;;;;;21.90;30.42;97841.78;5036207;28;948;-78
2022/08/05 00:57:38;;;;;;;;;;;;;;;21.87;30.13;97845.56;5055230;28;844;-78
2022/08/05 01:00:05;;;;;;;;;;;;;;;21.89;30.05;97843.84;5055032;28;923;-78
2022/08/05 01:02:31;;;;;;;;;;;;;;;21.78;30.28;97846.19;5069478;28;1158;-78
2022/08/05 01:04:56;;;;;;;;;;;;;;;21.82;30.54;97844.84;5052863;28;906;-78
2022/08/05 01:07:21;;;;;;;;;;;;;;;21.56;30.71;97854.53;5052858;28;954;-78
2022/08/05 01:09:47;;;;;;;;;;;;;;;21.63;30.68;97848.66;5013195;28;1902;-78
2022/08/05 01:12:13;;;;;;;;;;;;;;;21.64;30.83;97841.75;5013050;28;968;-78
2022/08/05 01:14:44;;;;;;;;;;;;;;;21.92;30.07;97847.81;4996858;28;872;-77
2022/08/05 01:17:21;;;;;;;;;;;;;;;21.56;30.88;97848.88;5012848;28;926;-78
2022/08/05 01:19:50;;;;;;;;;;;;;;;21.75;30.58;97847.88;4997070;28;945;-77
2022/08/05 01:22:22;;;;;;;;;;;;;;;21.78;30.71;97841.34;4993571;28;1074;-78
2022/08/05 01:24:59;;;;;;;;;;;;;;;21.74;30.51;97846.31;4993905;28;1007;-78
2022/08/05 01:27:37;;;;;;;;;;;;;;;21.72;30.48;97840.31;4996858;28;865;-78
2022/08/05 01:30:03;;;;;;;;;;;;;;;21.61;30.67;97839.03;4977140;28;1915;-77
2022/08/05 01:32:29;;;;;;;;;;;;;;;21.59;30.62;97836.63;4977520;28;998;-78
2022/08/05 01:35:01;;;;;;;;;;;;;;;21.65;30.58;97840.50;4978891;28;924;-78
2022/08/05 01:37:42;;;;;;;;;;;;;;;21.56;30.99;97843.22;4996352;28;973;-77
2022/08/05 01:40:08;;;;;;;;;;;;;;;21.80;30.39;97836.00;4976869;28;984;-78
2022/08/05 01:42:33;;;;;;;;;;;;;;;21.69;30.53;97840.41;4961052;28;1031;-78
2022/08/05 01:44:59;;;;;;;;;;;;;;;21.88;30.29;97838.63;4957671;28;946;-78
2022/08/05 01:47:24;;;;;;;;;;;;;;;21.54;31.06;97834.34;4903007;29;1022;-78
2022/08/05 01:49:51;;;;;;;;;;;;;;;21.76;30.57;97834.50;4903469;29;1985;-78
2022/08/05 01:52:16;;;;;;;;;;;;;;;21.83;30.38;97840.78;4921156;29;1021;-78
2022/08/05 01:54:43;;;;;;;;;;;;;;;21.63;30.49;97833.72;4900046;29;952;-78
2022/08/05 01:57:08;;;;;;;;;;;;;;;21.67;30.48;97838.03;4884876;29;1002;-78
2022/08/05 01:59:34;;;;;;;;;;;;;;;21.67;30.82;97837.22;4900240;29;939;-78
2022/08/05 02:01:59;;;;;;;;;;;;;;;21.73;30.46;97836.22;4879290;29;889;-78
2022/08/05 02:04:25;;;;;;;;;;;;;;;21.74;30.62;97829.31;4866032;29;1148;-78
2022/08/05 02:06:51;;;;;;;;;;;;;;;21.54;30.65;97823.03;4865935;29;962;-78
2022/08/05 02:09:16;;;;;;;;;;;;;;;21.60;30.75;97826.88;4881745;29;1974;-78
2022/08/05 02:11:54;;;;;;;;;;;;;;;21.62;30.66;97829.28;4881222;29;912;-78
2022/08/05 02:14:20;;;;;;;;;;;;;;;21.59;30.58;97830.97;4862872;29;1073;-78
2022/08/05 02:16:52;;;;;;;;;;;;;;;21.79;30.62;97834.41;4862435;29;1222;-78
2022/08/05 02:19:27;;;;;;;;;;;;;;;21.74;30.40;97832.13;4878788;29;1066;-78
2022/08/05 02:21:54;;;;;;;;;;;;;;;21.66;30.71;97829.97;4881460;29;977;-78
2022/08/05 02:24:21;;;;;;;;;;;;;;;21.56;30.63;97837.53;4867314;29;975;-78
2022/08/05 02:26:48;;;;;;;;;;;;;;;21.70;30.51;97836.31;4881393;29;982;-78
2022/08/05 02:29:15;;;;;;;;;;;;;;;21.91;30.54;97837.72;4825324;29;1907;-78
2022/08/05 02:31:40;;;;;;;;;;;;;;;21.64;30.72;97833.25;4807315;29;919;-78
2022/08/05 02:34:07;;;;;;;;;;;;;;;21.59;30.47;97831.75;4822402;29;1002;-78
2022/08/05 02:36:33;;;;;;;;;;;;;;;21.52;30.67;97834.81;4806498;29;973;-78
2022/08/05 02:38:59;;;;;;;;;;;;;;;21.53;30.66;97839.22;4807242;29;985;-78
2022/08/05 02:41:24;;;;;;;;;;;;;;;21.78;30.41;97832.84;4824603;29;1120;-78
2022/08/05 02:43:50;;;;;;;;;;;;;;;21.61;30.48;97830.53;4810469;29;956;-78
2022/08/05 02:46:15;;;;;;;;;;;;;;;21.70;30.57;97837.09;4794265;29;961;-78
2022/08/05 02:48:41;;;;;;;;;;;;;;;21.62;30.32;97832.91;4823808;29;1184;-78
2022/08/05 02:51:06;;;;;;;;;;;;;;;21.77;30.09;97831.25;4843659;29;1911;-78
2022/08/05 02:53:31;;;;;;;;;;;;;;;21.55;30.54;97833.09;4843610;29;953;-78
2022/08/05 02:55:57;;;;;;;;;;;;;;;21.64;30.34;97832.47;4843708;29;941;-78
2022/08/05 02:58:22;;;;;;;;;;;;;;;21.52;30.40;97834.81;4843219;29;1088;-78
2022/08/05 03:00:48;;;;;;;;;;;;;;;21.63;30.52;97833.72;4841969;29;949;-78
2022/08/05 03:03:14;;;;;;;;;;;;;;;21.68;30.27;97833.94;4838119;29;950;-78
2022/08/05 03:05:39;;;;;;;;;;;;;;;21.90;29.85;97836.91;4858930;29;985;-78
2022/08/05 03:08:05;;;;;;;;;;;;;;;21.76;30.08;97828.84;4885533;29;951;-78
2022/08/05 03:10:30;;;;;;;;;;;;;;;21.59;30.40;97828.13;4899116;29;1999;-78
2022/08/05 03:12:55;;;;;;;;;;;;;;;21.77;30.26;97831.25;4926665;29;917;-78
2022/08/05 03:15:21;;;;;;;;;;;;;;;21.66;30.39;97836.44;4956223;29;961;-78
2022/08/05 03:17:47;;;;;;;;;;;;;;;21.80;30.08;97836.00;4955871;29;1044;-78
2022/08/05 03:20:12;;;;;;;;;;;;;;;21.79;30.36;97840.09;4955821;29;1014;-78
2022/08/05 03:22:38;;;;;;;;;;;;;;;21.61;30.35;97839.84;4955897;28;1028;-78
2022/08/05 03:25:03;;;;;;;;;;;;;;;22.07;31.20;97837.63;4969722;28;967;-78
2022/08/05 03:27:31;;;;;;;;;;;;;;;22.44;31.36;97843.78;4977282;28;1024;-78
2022/08/05 03:29:57;;;;;;;;;;;;;;;22.12;32.61;97845.59;5057867;28;1906;-78
2022/08/05 03:32:22;;;;;;;;;;;;;;;22.04;31.84;97838.53;5057233;28;908;-78
2022/08/05 03:34:48;;;;;;;;;;;;;;;21.92;32.05;97847.81;5053705;28;930;-78
2022/08/05 03:37:13;;;;;;;;;;;;;;;22.12;31.35;97845.59;5054018;28;1007;-78
2022/08/05 03:39:50;;;;;;;;;;;;;;;22.01;31.38;97842.25;5033443;28;999;-77
2022/08/05 03:42:15;;;;;;;;;;;;;;;21.74;31.52;97846.31;5001412;28;984;-78
2022/08/05 03:44:41;;;;;;;;;;;;;;;22.07;30.92;97843.28;4994293;28;1058;-77
2022/08/05 03:47:06;;;;;;;;;;;;;;;21.92;31.31;97837.28;4993469;28;1087;-78
2022/08/05 03:49:32;;;;;;;;;;;;;;;21.93;31.04;97840.91;4993878;28;1902;-78
2022/08/05 03:51:59;;;;;;;;;;;;;;;21.76;31.05;97840.19;4994241;28;992;-78
2022/08/05 03:54:24;;;;;;;;;;;;;;;21.78;31.18;97838.50;4974712;28;944;-78
2022/08/05 03:56:50;;;;;;;;;;;;;;;21.90;31.10;97836.13;4974537;28;947;-78
2022/08/05 03:59:27;;;;;;;;;;;;;;;21.80;30.88;97838.03;4954933;29;972;-77
2022/08/05 04:01:52;;;;;;;;;;;;;;;21.99;30.58;97844.75;4939892;29;904;-78
2022/08/05 04:04:18;;;;;;;;;;;;;;;21.75;31.19;97845.06;4939451;29;1177;-78
2022/08/05 04:06:44;;;;;;;;;;;;;;;21.97;30.90;97839.56;4973596;28;1018;-78
2022/08/05 04:09:09;;;;;;;;;;;;;;;21.93;30.63;97838.88;4994065;28;1910;-78
2022/08/05 04:11:35;;;;;;;;;;;;;;;21.97;30.48;97838.75;5015055;28;905;-78
2022/08/05 04:14:00;;;;;;;;;;;;;;;21.96;30.59;97837.16;5033322;28;964;-78
2022/08/05 04:16:26;;;;;;;;;;;;;;;21.96;30.62;97831.50;5033516;28;930;-78
2022/08/05 04:18:51;;;;;;;;;;;;;;;21.99;30.53;97836.25;5016588;28;920;-78
2022/08/05 04:21:17;;;;;;;;;;;;;;;22.07;30.28;97848.94;5016783;28;989;-78
2022/08/05 04:23:42;;;;;;;;;;;;;;;22.05;30.37;97837.28;5033167;28;903;-77
2022/08/05 04:26:08;;;;;;;;;;;;;;;21.76;30.91;97834.50;5016913;28;964;-78
2022/08/05 04:28:33;;;;;;;;;;;;;;;22.00;30.31;97827.31;5033376;28;884;-78
2022/08/05 04:30:59;;;;;;;;;;;;;;;22.03;30.40;97848.28;5050962;28;1910;-78
2022/08/05 04:33:25;;;;;;;;;;;;;;;21.92;30.58;97837.28;5070906;28;921;-78
2022/08/05 04:35:50;;;;;;;;;;;;;;;22.05;29.98;97842.94;5071013;28;934;-77
2022/08/05 04:38:16;;;;;;;;;;;;;;;22.14;29.94;97848.78;5055611;28;894;-78
2022/08/05 04:40:41;;;;;;;;;;;;;;;22.00;30.25;97846.34;5070034;28;1002;-78
2022/08/05 04:43:07;;;;;;;;;;;;;;;21.91;30.25;97840.53;5055161;28;920;-78
2022/08/05 04:45:32;;;;;;;;;;;;;;;21.83;30.39;97840.78;5054916;28;873;-78
2022/08/05 04:48:10;;;;;;;;;;;;;;;21.71;30.72;97843.56;5054881;28;1235;-78
2022/08/05 04:50:40;;;;;;;;;;;;;;;21.91;30.41;97843.38;5054939;28;1910;-78
2022/08/05 04:53:06;;;;;;;;;;;;;;;22.09;30.01;97858.59;5070819;28;939;-78
2022/08/05 04:55:31;;;;;;;;;;;;;;;21.93;30.37;97855.06;5070716;28;912;-78
2022/08/05 04:57:57;;;;;;;;;;;;;;;21.93;30.35;97855.06;5054979;28;859;-78
2022/08/05 05:00:22;;;;;;;;;;;;;;;21.75;30.55;97844.25;5058455;28;914;-78
2022/08/05 05:02:48;;;;;;;;;;;;;;;21.90;30.53;97850.28;5057007;28;1020;-78
2022/08/05 05:05:13;;;;;;;;;;;;;;;21.90;30.26;97844.63;5059007;28;987;-78
2022/08/05 05:07:39;;;;;;;;;;;;;;;21.81;30.27;97836.78;5058934;28;930;-78
2022/08/05 05:10:05;;;;;;;;;;;;;;;22.04;30.34;97844.19;5058969;28;1902;-78
2022/08/05 05:12:31;;;;;;;;;;;;;;;21.76;30.76;97843.81;5036420;28;962;-78
2022/08/05 05:14:56;;;;;;;;;;;;;;;22.13;30.22;97841.53;5036635;28;1015;-75
2022/08/05 05:17:21;;;;;;;;;;;;;;;21.84;30.64;97841.56;5036512;28;1486;-77
2022/08/05 05:19:47;;;;;;;;;;;;;;;21.71;30.49;97841.56;5036579;28;951;-77
2022/08/05 05:22:12;;;;;;;;;;;;;;;22.03;29.98;97845.44;5036712;28;982;-77
2022/08/05 05:24:38;;;;;;;;;;;;;;;21.94;30.28;97839.66;5036344;28;1060;-77
2022/08/05 05:27:03;;;;;;;;;;;;;;;21.88;30.51;97844.28;5035611;28;1095;-79
2022/08/05 05:29:29;;;;;;;;;;;;;;;21.92;30.50;97842.16;5036021;28;1969;-77
2022/08/05 05:31:55;;;;;;;;;;;;;;;22.09;30.09;97841.59;5036459;28;914;-77
2022/08/05 05:34:21;;;;;;;;;;;;;;;21.83;30.79;97840.78;5036080;28;1082;-77
2022/08/05 05:36:46;;;;;;;;;;;;;;;21.69;30.92;97835.53;5036079;28;940;-77
2022/08/05 05:39:12;;;;;;;;;;;;;;;21.95;30.40;97835.56;5036012;28;983;-77
2022/08/05 05:41:37;;;;;;;;;;;;;;;21.92;30.59;97840.13;5035212;28;1131;-78
2022/08/05 05:44:03;;;;;;;;;;;;;;;22.18;30.39;97837.34;5051896;28;1309;-78
2022/08/05 05:46:28;;;;;;;;;;;;;;;21.94;30.69;97839.66;5057558;28;1426;-78
2022/08/05 05:48:54;;;;;;;;;;;;;;;22.01;30.84;97843.06;5058021;28;1181;-78
2022/08/05 05:51:22;;;;;;;;;;;;;;;21.71;31.31;97852.06;5057703;28;1910;-78
2022/08/05 05:53:48;;;;;;;;;;;;;;;21.95;30.74;97846.91;5058102;28;961;-78
2022/08/05 05:56:14;;;;;;;;;;;;;;;22.08;30.45;97850.56;5073752;28;851;-78
2022/08/05 05:58:39;;;;;;;;;;;;;;;21.97;31.07;97847.25;5056066;28;990;-78
2022/08/05 06:01:05;;;;;;;;;;;;;;;21.98;31.02;97851.69;5057930;28;897;-78
2022/08/05 06:03:30;;;;;;;;;;;;;;;21.69;31.38;97852.53;5058186;28;903;-78
2022/08/05 06:05:56;;;;;;;;;;;;;;;21.96;31.00;97856.97;5057744;28;898;-78
2022/08/05 06:08:21;;;;;;;;;;;;;;;21.98;30.87;97854.50;5057686;28;1035;-78
2022/08/05 06:10:47;;;;;;;;;;;;;;;21.83;31.25;97863.44;5056918;28;2013;-78
2022/08/05 06:13:12;;;;;;;;;;;;;;;22.28;30.53;97859.66;5057684;28;945;-78
2022/08/05 06:15:37;;;;;;;;;;;;;;;21.96;31.26;97866.28;5057582;28;1056;-78
2022/08/05 06:18:03;;;;;;;;;;;;;;;22.19;30.70;97862.38;5055339;28;965;-78
2022/08/05 06:20:28;;;;;;;;;;;;;;;22.17;30.78;97864.06;5054992;28;942;-78
2022/08/05 06:22:54;;;;;;;;;;;;;;;22.07;30.88;97869.59;5055192;28;1100;-78
2022/08/05 06:25:19;;;;;;;;;;;;;;;22.00;30.92;97860.50;5054936;28;1015;-78
2022/08/05 06:27:45;;;;;;;;;;;;;;;21.92;31.25;97854.28;5055100;28;896;-78
2022/08/05 06:30:14;;;;;;;;;;;;;;;21.97;31.34;97858.59;5055000;28;1907;-78
2022/08/05 06:32:41;;;;;;;;;;;;;;;22.08;30.99;97861.88;5055155;28;1062;-78
2022/08/05 06:35:07;;;;;;;;;;;;;;;22.15;30.72;97860.91;5034624;28;959;-78
2022/08/05 06:37:32;;;;;;;;;;;;;;;22.03;31.14;97859.63;5034803;28;986;-78
2022/08/05 06:39:57;;;;;;;;;;;;;;;22.06;30.83;97864.38;5035121;28;1014;-78
2022/08/05 06:42:23;;;;;;;;;;;;;;;22.05;30.98;97871.28;5035243;28;982;-78
2022/08/05 06:44:48;;;;;;;;;;;;;;;21.90;31.32;97867.28;5034772;28;922;-78
2022/08/05 06:47:14;;;;;;;;;;;;;;;22.02;31.34;97875.81;5034621;28;1588;-77
2022/08/05 06:49:39;;;;;;;;;;;;;;;22.01;31.40;97879.09;5034835;28;1914;-78
2022/08/05 06:52:05;;;;;;;;;;;;;;;22.06;31.06;97875.69;5034868;28;1005;-78
2022/08/05 06:54:30;;;;;;;;;;;;;;;22.20;30.87;97886.63;5034439;28;910;-78
2022/08/05 06:56:56;;;;;;;;;;;;;;;22.18;31.11;97882.69;5034947;28;959;-78
2022/08/05 06:59:21;;;;;;;;;;;;;;;22.14;31.17;97879.94;5034128;28;983;-77
2022/08/05 07:01:46;;;;;;;;;;;;;;;21.98;31.17;97880.00;5034321;28;927;-78
2022/08/05 07:04:12;;;;;;;;;;;;;;;21.87;31.14;97879.53;5034595;28;956;-78
2022/08/05 07:06:37;;;;;;;;;;;;;;;22.10;31.04;97888.53;5050429;28;923;-78
2022/08/05 07:09:03;;;;;;;;;;;;;;;22.20;30.97;97886.63;5056723;28;974;-78
2022/08/05 07:11:29;;;;;;;;;;;;;;;22.18;31.06;97888.34;5056687;28;1902;-78
2022/08/05 07:16:48;;;;;;;;;;;;;;;21.99;31.13;97881.59;5054044;28;938;-78
2022/08/05 07:19:14;;;;;;;;;;;;;;;22.07;30.95;97882.94;5054073;28;1011;-78
2022/08/05 07:21:40;;;;;;;;;;;;;;;22.13;31.06;97881.19;5053992;28;1097;-77
2022/08/05 07:24:05;;;;;;;;;;;;;;;21.99;31.06;97887.25;5054177;28;978;-78
2022/08/05 07:26:31;;;;;;;;;;;;;;;22.19;31.04;97890.72;5004144;28;1114;-78
2022/08/05 07:28:56;;;;;;;;;;;;;;;22.19;31.02;97890.72;5053761;28;977;-77
2022/08/05 07:31:22;;;;;;;;;;;;;;;22.10;31.02;97882.06;5053283;28;2036;-78
2022/08/05 07:33:47;;;;;;;;;;;;;;;22.06;30.93;97892.69;5053311;28;1075;-78
2022/08/05 07:36:13;;;;;;;;;;;;;;;22.10;31.17;97888.53;5053962;28;909;-78
2022/08/05 07:38:39;;;;;;;;;;;;;;;22.14;30.86;97888.44;5054283;28;914;-78
2022/08/05 07:41:08;;;;;;;;;;;;;;;22.09;30.75;97886.13;5053823;28;948;-78
2022/08/05 07:43:33;;;;;;;;;;;;;;;22.22;30.82;97884.13;5053615;28;919;-78
2022/08/05 07:45:59;;;;;;;;;;;;;;;22.29;30.57;97883.13;5053839;28;1010;-78
2022/08/05 07:48:24;;;;;;;;;;;;;;;22.31;30.70;97881.41;5021423;28;1231;-78
2022/08/05 07:50:51;;;;;;;;;;;;;;;22.16;31.08;97885.94;5070920;28;1964;-78
2022/08/05 07:53:16;;;;;;;;;;;;;;;22.16;31.02;97879.47;5053960;28;958;-78
2022/08/05 07:55:42;;;;;;;;;;;;;;;22.14;31.14;97888.44;5053913;28;967;-78
2022/08/05 07:58:07;;;;;;;;;;;;;;;22.16;31.07;97885.94;5053990;28;934;-78
2022/08/05 08:00:33;;;;;;;;;;;;;;;22.12;31.18;97885.25;5053673;28;817;-78
2022/08/05 08:02:58;;;;;;;;;;;;;;;22.03;31.51;97874.56;5040205;28;973;-78
2022/08/05 08:05:25;;;;;;;;;;;;;;;22.04;31.25;97883.88;5036050;28;910;-78
2022/08/05 08:07:50;;;;;;;;;;;;;;;22.21;30.85;97887.44;5033860;28;1038;-78
2022/08/05 08:10:16;;;;;;;;;;;;;;;22.35;30.64;97875.66;5036335;28;1910;-78
2022/08/05 08:12:41;;;;;;;;;;;;;;;22.00;30.99;97888.84;5036153;28;969;-77
2022/08/05 08:15:07;;;;;;;;;;;;;;;21.81;31.44;97884.94;5036065;28;830;-78
2022/08/05 08:17:32;;;;;;;;;;;;;;;21.83;31.61;97873.97;5035818;28;926;-78
2022/08/05 08:19:58;;;;;;;;;;;;;;;21.99;31.19;97881.59;5036018;28;862;-78
2022/08/05 08:22:26;;;;;;;;;;;;;;;22.10;31.19;97882.06;5035731;28;1341;-78
2022/08/05 08:24:52;;;;;;;;;;;;;;;22.16;30.94;97888.00;5035832;28;928;-78
2022/08/05 08:27:18;;;;;;;;;;;;;;;22.14;30.97;97884.81;5035994;28;896;-78
2022/08/05 08:29:43;;;;;;;;;;;;;;;22.19;30.68;97879.38;5035944;28;1902;-78
2022/08/05 08:32:08;;;;;;;;;;;;;;;22.10;31.14;97876.38;5035883;28;923;-77
2022/08/05 08:34:34;;;;;;;;;;;;;;;22.07;30.75;97866.78;5037880;28;936;-78
2022/08/05 08:37:00;;;;;;;;;;;;;;;22.03;30.90;97866.06;5040387;28;888;-78
2022/08/05 08:39:25;;;;;;;;;;;;;;;22.12;31.07;97873.13;5039796;28;959;-78
2022/08/05 08:41:51;;;;;;;;;;;;;;;22.23;30.85;97857.41;5039621;28;946;-78
2022/08/05 08:44:17;;;;;;;;;;;;;;;22.19;30.83;97856.72;5040175;28;895;-78
2022/08/05 08:46:42;;;;;;;;;;;;;;;22.21;30.59;97851.38;5039457;28;1144;-78
2022/08/05 08:49:08;;;;;;;;;;;;;;;22.10;30.67;97853.72;5055181;28;852;-78
2022/08/05 08:51:33;;;;;;;;;;;;;;;22.10;30.89;97857.38;5039763;28;1887;-78
2022/08/05 08:53:59;;;;;;;;;;;;;;;22.20;30.69;97858.28;5039969;28;1018;-77
2022/08/05 08:56:25;;;;;;;;;;;;;;;22.19;30.86;97868.03;5039724;28;864;-78
2022/08/05 08:58:50;;;;;;;;;;;;;;;22.30;30.53;97862.84;5037069;28;900;-78
2022/08/05 09:01:16;;;;;;;;;;;;;;;22.44;30.46;97861.59;5037339;28;925;-78
2022/08/05 09:03:41;;;;;;;;;;;;;;;22.30;30.54;97862.03;5037232;28;1016;-78
2022/08/05 09:06:07;;;;;;;;;;;;;;;22.31;30.60;97853.06;5036980;28;938;-78
2022/08/05 09:08:32;;;;;;;;;;;;;;;22.08;30.92;97856.22;5036714;28;869;-78
2022/08/05 09:10:58;;;;;;;;;;;;;;;22.16;30.85;97863.28;5036869;28;1913;-78
2022/08/05 09:13:23;;;;;;;;;;;;;;;22.16;30.89;97857.59;5036828;28;996;-78
2022/08/05 09:15:49;;;;;;;;;;;;;;;22.41;30.50;97841.84;5036520;28;1083;-78
2022/08/05 09:18:15;;;;;;;;;;;;;;;22.27;30.36;97852.38;5036337;28;982;-77
2022/08/05 09:20:42;;;;;;;;;;;;;;;22.15;30.71;97850.34;5036328;28;873;-78
2022/08/05 09:23:11;;;;;;;;;;;;;;;22.25;30.95;97859.78;5036510;28;910;-78
2022/08/05 09:25:37;;;;;;;;;;;;;;;22.15;30.88;97841.84;5036354;28;884;-78
2022/08/05 09:28:09;;;;;;;;;;;;;;;22.21;30.82;97837.19;5036328;28;953;-78
2022/08/05 09:30:35;;;;;;;;;;;;;;;22.20;30.74;97840.50;5004112;28;1902;-77
2022/08/05 09:33:01;;;;;;;;;;;;;;;22.02;31.20;97838.16;4996933;28;904;-77
2022/08/05 09:35:26;;;;;;;;;;;;;;;22.24;30.92;97841.97;4997015;28;1114;-77
2022/08/05 09:37:52;;;;;;;;;;;;;;;22.14;31.06;97843.09;4996827;28;934;-77
2022/08/05 09:40:33;;;;;;;;;;;;;;;22.35;30.52;97845.25;4997014;28;848;-77
2022/08/05 09:42:58;;;;;;;;;;;;;;;22.34;30.81;97829.50;4996699;28;921;-77
2022/08/05 09:45:33;;;;;;;;;;;;;;;22.05;30.90;97837.28;4995492;28;915;-77
2022/08/05 09:47:59;;;;;;;;;;;;;;;22.32;30.81;97834.03;4996498;28;1234;-77
2022/08/05 09:50:36;;;;;;;;;;;;;;;22.30;30.49;97834.50;5037980;28;1979;-77
2022/08/05 09:53:02;;;;;;;;;;;;;;;22.18;31.07;97840.97;5038211;28;917;-77
2022/08/05 09:55:33;;;;;;;;;;;;;;;22.08;31.00;97831.50;5038597;28;861;-77
2022/08/05 09:57:59;;;;;;;;;;;;;;;22.22;30.93;97849.34;5038306;28;948;-76
2022/08/05 10:00:24;;;;;;;;;;;;;;;22.30;30.84;97828.03;5038325;28;947;-77
2022/08/05 10:02:53;;;;;;;;;;;;;;;22.23;30.84;97834.72;5038338;28;950;-77
2022/08/05 10:05:25;;;;;;;;;;;;;;;22.04;31.45;97832.88;5053049;28;967;-77
2022/08/05 10:07:51;;;;;;;;;;;;;;;22.22;30.90;97838.00;5036067;28;988;-77
2022/08/05 10:10:18;;;;;;;;;;;;;;;22.20;30.88;97838.47;5035521;28;1902;-77
2022/08/05 10:12:47;;;;;;;;;;;;;;;22.25;30.76;97837.88;5035648;28;926;-77
2022/08/05 10:15:13;;;;;;;;;;;;;;;22.30;30.61;97817.47;5018530;28;2134;-77
2022/08/05 10:17:39;;;;;;;;;;;;;;;22.34;30.45;97828.72;5012315;28;998;-77
2022/08/05 10:20:05;;;;;;;;;;;;;;;22.41;30.70;97813.50;4980594;28;990;-77
2022/08/05 10:22:30;;;;;;;;;;;;;;;22.25;30.92;97832.22;4979698;28;926;-77
2022/08/05 10:24:56;;;;;;;;;;;;;;;22.46;30.48;97827.91;4996368;28;961;-77
2022/08/05 10:27:21;;;;;;;;;;;;;;;22.41;30.83;97819.97;4980128;28;990;-76
2022/08/05 10:29:46;;;;;;;;;;;;;;;22.18;31.04;97831.66;4979552;28;2054;-77
2022/08/05 10:32:12;;;;;;;;;;;;;;;22.28;30.74;97827.69;4996079;28;964;-77
2022/08/05 10:34:37;;;;;;;;;;;;;;;22.38;30.63;97829.38;4995713;28;865;-77
2022/08/05 10:37:03;;;;;;;;;;;;;;;22.20;30.84;97827.13;4995693;28;972;-77
2022/08/05 10:39:30;;;;;;;;;;;;;;;22.19;31.39;97822.69;5028013;28;912;-77
2022/08/05 10:42:04;;;;;;;;;;;;;;;22.25;31.04;97817.25;5053180;28;864;-77
2022/08/05 10:44:30;;;;;;;;;;;;;;;22.18;31.29;97821.13;5035148;28;1270;-77
2022/08/05 10:46:55;;;;;;;;;;;;;;;22.39;30.84;97801.84;5018378;28;1286;-78
2022/08/05 10:49:22;;;;;;;;;;;;;;;22.30;30.84;97816.69;5035090;28;1910;-77
2022/08/05 10:51:56;;;;;;;;;;;;;;;22.42;30.84;97806.59;5034843;28;1001;-78
2022/08/05 10:54:22;;;;;;;;;;;;;;;22.20;30.84;97810.13;5035169;28;1019;-77
2022/08/05 10:56:48;;;;;;;;;;;;;;;22.22;30.96;97804.78;5034628;28;977;-78
2022/08/05 10:59:17;;;;;;;;;;;;;;;22.34;30.62;97803.19;5034651;28;986;-78
2022/08/05 11:01:43;;;;;;;;;;;;;;;22.39;30.57;97796.16;5035022;28;978;-78
2022/08/05 11:04:10;;;;;;;;;;;;;;;22.51;30.41;97810.31;5034636;28;986;-78
2022/08/05 11:06:54;;;;;;;;;;;;;;;22.36;30.53;97809.19;5034725;28;1275;-78
2022/08/05 11:09:20;;;;;;;;;;;;;;;22.00;31.50;97809.50;5034450;28;1987;-78
2022/08/05 11:11:46;;;;;;;;;;;;;;;22.00;31.21;97809.50;5034649;28;975;-78
2022/08/05 11:14:12;;;;;;;;;;;;;;;22.22;31.14;97804.78;5034878;28;903;-78
2022/08/05 11:16:37;;;;;;;;;;;;;;;22.23;30.89;97792.22;5018063;28;898;-78
2022/08/05 11:19:21;;;;;;;;;;;;;;;22.40;30.54;97797.75;5036708;28;927;-78
2022/08/05 11:21:47;;;;;;;;;;;;;;;22.24;30.85;97807.19;5036915;28;851;-78
2022/08/05 11:24:13;;;;;;;;;;;;;;;22.18;31.17;97789.94;5036869;28;925;-77
2022/08/05 11:26:39;;;;;;;;;;;;;;;22.29;30.79;97787.56;5036476;28;912;-78
2022/08/05 11:29:04;;;;;;;;;;;;;;;22.40;30.53;97792.09;5033995;28;962;-78
2022/08/05 11:31:30;;;;;;;;;;;;;;;22.34;30.76;97801.16;5034189;28;1906;-78
2022/08/05 11:33:56;;;;;;;;;;;;;;;22.30;30.87;97789.13;5017979;28;939;-78
2022/08/05 11:36:40;;;;;;;;;;;;;;;22.20;31.05;97792.31;5034342;28;988;-78
2022/08/05 11:39:09;;;;;;;;;;;;;;;22.30;30.89;97772.13;5033881;28;959;-78
2022/08/05 11:41:35;;;;;;;;;;;;;;;22.48;30.46;97765.84;5034186;28;981;-78
2022/08/05 11:44:01;;;;;;;;;;;;;;;22.43;30.77;97769.25;5017193;28;988;-77
2022/08/05 11:46:27;;;;;;;;;;;;;;;22.30;30.81;97777.81;5013674;28;923;-77
2022/08/05 11:48:53;;;;;;;;;;;;;;;22.32;30.87;97766.00;5013871;28;1350;-77
2022/08/05 11:51:18;;;;;;;;;;;;;;;22.25;30.75;97767.03;4974790;28;1902;-77
2022/08/05 11:53:44;;;;;;;;;;;;;;;22.27;30.83;97767.38;4974858;28;984;-77
2022/08/05 11:56:10;;;;;;;;;;;;;;;22.61;30.51;97771.50;4974664;28;904;-76
2022/08/05 11:58:38;;;;;;;;;;;;;;;22.34;30.71;97784.16;4974873;28;898;-76
2022/08/05 12:01:04;;;;;;;;;;;;;;;22.19;30.84;97774.53;4939972;28;1007;-77
2022/08/05 12:03:30;;;;;;;;;;;;;;;22.08;31.02;97783.34;4936544;29;1045;-77
2022/08/05 12:06:00;;;;;;;;;;;;;;;22.44;30.70;97781.44;4936421;29;1013;-77
2022/08/05 12:08:25;;;;;;;;;;;;;;;22.30;30.62;97783.47;4936019;29;1142;-77
2022/08/05 12:10:50;;;;;;;;;;;;;;;22.29;30.79;97776.22;4936216;29;1975;-77
2022/08/05 12:13:16;;;;;;;;;;;;;;;22.32;30.68;97769.63;4936268;29;1259;-77
2022/08/05 12:15:42;;;;;;;;;;;;;;;22.42;30.24;97773.34;4936376;29;1035;-77
2022/08/05 12:18:08;;;;;;;;;;;;;;;22.36;30.37;97770.31;4966482;28;971;-77
2022/08/05 12:20:37;;;;;;;;;;;;;;;22.23;30.90;97772.38;4961671;28;982;-77
2022/08/05 12:23:12;;;;;;;;;;;;;;;22.19;30.59;97768.88;5027734;28;939;-77
2022/08/05 12:25:49;;;;;;;;;;;;;;;22.31;30.43;97779.38;5036233;28;913;-77
2022/08/05 12:28:28;;;;;;;;;;;;;;;22.30;30.55;97777.81;5035550;28;851;-77
2022/08/05 12:30:55;;;;;;;;;;;;;;;22.33;30.48;97788.25;5033042;28;1993;-77
2022/08/05 12:33:20;;;;;;;;;;;;;;;22.42;30.38;97783.91;5033451;28;1079;-77
2022/08/05 12:35:46;;;;;;;;;;;;;;;22.16;30.63;97783.94;5033241;28;891;-77
2022/08/05 12:38:11;;;;;;;;;;;;;;;22.24;30.71;97788.13;4993730;28;910;-77
2022/08/05 12:40:36;;;;;;;;;;;;;;;22.24;30.78;97784.50;4994048;28;851;-77
2022/08/05 12:43:05;;;;;;;;;;;;;;;22.36;30.11;97781.63;4994377;28;947;-77
2022/08/05 12:45:30;;;;;;;;;;;;;;;22.35;30.21;97777.22;4978314;28;901;-77
2022/08/05 12:47:56;;;;;;;;;;;;;;;22.40;30.36;97775.06;4993314;28;1147;-77
2022/08/05 12:50:22;;;;;;;;;;;;;;;22.40;30.38;97775.88;4993558;28;1991;-77
2022/08/05 12:52:54;;;;;;;;;;;;;;;22.38;30.39;97771.88;4993452;28;1300;-77
2022/08/05 12:55:23;;;;;;;;;;;;;;;22.02;30.57;97775.84;4993785;28;974;-77
2022/08/05 12:57:49;;;;;;;;;;;;;;;22.28;30.41;97780.31;4993516;28;997;-77
2022/08/05 13:00:24;;;;;;;;;;;;;;;22.40;30.23;97772.25;4974592;28;1045;-77
2022/08/05 13:02:49;;;;;;;;;;;;;;;22.31;30.14;97768.03;4974566;28;1034;-77